sensor_id;sensor_type;location;lat;lon;timestamp;pressure;altitude;pressure_sealevel;temperature
45976;BMP280;31696;42.668;23.322;2023-11-19T00:00:33;94635.88;;;4.94
45976;BMP280;31696;42.668;23.322;2023-11-19T00:02:33;94636.50;;;5.01
45976;BMP280;31696;42.668;23.322;2023-11-19T00:04:37;94634.66;;;5.01
45976;BMP280;31696;42.668;23.322;2023-11-19T00:06:39;94632.13;;;5.14
45976;BMP280;31696;42.668;23.322;2023-11-19T00:08:39;94638.22;;;5.17
45976;BMP280;31696;42.668;23.322;2023-11-19T00:10:40;94631.19;;;5.17
45976;BMP280;31696;42.668;23.322;2023-11-19T00:12:42;94631.53;;;5.27
45976;BMP280;31696;42.668;23.322;2023-11-19T00:14:42;94628.66;;;5.12
45976;BMP280;31696;42.668;23.322;2023-11-19T00:16:43;94627.41;;;5.18
45976;BMP280;31696;42.668;23.322;2023-11-19T00:18:43;94636.44;;;5.25
45976;BMP280;31696;42.668;23.322;2023-11-19T00:20:43;94630.06;;;5.31
45976;BMP280;31696;42.668;23.322;2023-11-19T00:22:44;94635.28;;;5.07
45976;BMP280;31696;42.668;23.322;2023-11-19T00:24:48;94632.63;;;5.13
45976;BMP280;31696;42.668;23.322;2023-11-19T00:26:48;94635.88;;;5.13
45976;BMP280;31696;42.668;23.322;2023-11-19T00:28:50;94631.50;;;5.08
45976;BMP280;31696;42.668;23.322;2023-11-19T00:30:50;94637.50;;;5.16
45976;BMP280;31696;42.668;23.322;2023-11-19T00:32:50;94633.25;;;5.00
45976;BMP280;31696;42.668;23.322;2023-11-19T00:34:51;94638.22;;;4.92
45976;BMP280;31696;42.668;23.322;2023-11-19T00:36:51;94634.72;;;5.14
45976;BMP280;31696;42.668;23.322;2023-11-19T00:38:52;94644.63;;;4.86
45976;BMP280;31696;42.668;23.322;2023-11-19T00:40:52;94647.34;;;4.93
45976;BMP280;31696;42.668;23.322;2023-11-19T00:42:53;94646.13;;;5.19
45976;BMP280;31696;42.668;23.322;2023-11-19T00:44:54;94648.41;;;4.79
45976;BMP280;31696;42.668;23.322;2023-11-19T00:46:55;94639.38;;;4.97
45976;BMP280;31696;42.668;23.322;2023-11-19T00:48:55;94638.97;;;5.12
45976;BMP280;31696;42.668;23.322;2023-11-19T00:50:58;94639.16;;;4.71
45976;BMP280;31696;42.668;23.322;2023-11-19T00:53:00;94641.25;;;4.72
45976;BMP280;31696;42.668;23.322;2023-11-19T00:55:00;94647.97;;;5.00
45976;BMP280;31696;42.668;23.322;2023-11-19T00:57:01;94638.00;;;5.15
45976;BMP280;31696;42.668;23.322;2023-11-19T00:59:01;94643.69;;;4.83
45976;BMP280;31696;42.668;23.322;2023-11-19T01:01:02;94637.34;;;4.90
45976;BMP280;31696;42.668;23.322;2023-11-19T01:03:02;94639.91;;;5.09
45976;BMP280;31696;42.668;23.322;2023-11-19T01:05:03;94644.75;;;5.18
45976;BMP280;31696;42.668;23.322;2023-11-19T01:07:03;94642.69;;;4.92
45976;BMP280;31696;42.668;23.322;2023-11-19T01:09:04;94647.56;;;4.95
45976;BMP280;31696;42.668;23.322;2023-11-19T01:11:05;94648.06;;;4.70
45976;BMP280;31696;42.668;23.322;2023-11-19T01:13:05;94652.47;;;4.93
45976;BMP280;31696;42.668;23.322;2023-11-19T01:15:06;94654.53;;;5.01
45976;BMP280;31696;42.668;23.322;2023-11-19T01:17:06;94648.38;;;4.85
45976;BMP280;31696;42.668;23.322;2023-11-19T01:19:07;94650.63;;;5.13
45976;BMP280;31696;42.668;23.322;2023-11-19T01:21:08;94645.63;;;5.02
45976;BMP280;31696;42.668;23.322;2023-11-19T01:23:08;94645.06;;;4.90
45976;BMP280;31696;42.668;23.322;2023-11-19T01:25:09;94638.25;;;4.68
45976;BMP280;31696;42.668;23.322;2023-11-19T01:27:09;94649.66;;;4.97
45976;BMP280;31696;42.668;23.322;2023-11-19T01:29:11;94650.59;;;5.18
45976;BMP280;31696;42.668;23.322;2023-11-19T01:31:15;94655.75;;;4.94
45976;BMP280;31696;42.668;23.322;2023-11-19T01:33:15;94663.34;;;4.86
45976;BMP280;31696;42.668;23.322;2023-11-19T01:35:15;94670.31;;;5.10
45976;BMP280;31696;42.668;23.322;2023-11-19T01:37:16;94679.28;;;5.04
45976;BMP280;31696;42.668;23.322;2023-11-19T01:39:16;94679.22;;;4.90
45976;BMP280;31696;42.668;23.322;2023-11-19T01:41:16;94669.41;;;5.08
45976;BMP280;31696;42.668;23.322;2023-11-19T01:43:33;94662.25;;;5.01
45976;BMP280;31696;42.668;23.322;2023-11-19T01:45:34;94665.72;;;5.03
45976;BMP280;31696;42.668;23.322;2023-11-19T01:47:35;94669.09;;;5.17
45976;BMP280;31696;42.668;23.322;2023-11-19T01:49:36;94670.88;;;4.79
45976;BMP280;31696;42.668;23.322;2023-11-19T01:51:37;94668.88;;;5.15
45976;BMP280;31696;42.668;23.322;2023-11-19T01:53:38;94685.19;;;5.23
45976;BMP280;31696;42.668;23.322;2023-11-19T01:55:39;94675.94;;;5.09
45976;BMP280;31696;42.668;23.322;2023-11-19T01:57:40;94674.94;;;5.17
45976;BMP280;31696;42.668;23.322;2023-11-19T01:59:41;94677.69;;;5.01
45976;BMP280;31696;42.668;23.322;2023-11-19T02:01:42;94676.44;;;4.83
45976;BMP280;31696;42.668;23.322;2023-11-19T02:03:42;94675.50;;;4.86
45976;BMP280;31696;42.668;23.322;2023-11-19T02:05:43;94665.25;;;5.05
45976;BMP280;31696;42.668;23.322;2023-11-19T02:07:43;94656.34;;;4.57
45976;BMP280;31696;42.668;23.322;2023-11-19T02:09:44;94652.16;;;4.78
45976;BMP280;31696;42.668;23.322;2023-11-19T02:11:45;94648.38;;;4.85
45976;BMP280;31696;42.668;23.322;2023-11-19T02:13:45;94647.13;;;4.91
45976;BMP280;31696;42.668;23.322;2023-11-19T02:15:45;94648.41;;;4.79
45976;BMP280;31696;42.668;23.322;2023-11-19T02:17:46;94644.44;;;5.03
45976;BMP280;31696;42.668;23.322;2023-11-19T02:19:46;94634.34;;;4.86
45976;BMP280;31696;42.668;23.322;2023-11-19T02:21:47;94640.44;;;4.59
45976;BMP280;31696;42.668;23.322;2023-11-19T02:23:47;94648.19;;;4.77
45976;BMP280;31696;42.668;23.322;2023-11-19T02:25:53;94644.06;;;4.93
45976;BMP280;31696;42.668;23.322;2023-11-19T02:27:56;94651.66;;;4.85
45976;BMP280;31696;42.668;23.322;2023-11-19T02:29:57;94661.47;;;4.87
45976;BMP280;31696;42.668;23.322;2023-11-19T02:31:57;94655.16;;;4.82
45976;BMP280;31696;42.668;23.322;2023-11-19T02:33:59;94666.00;;;5.00
45976;BMP280;31696;42.668;23.322;2023-11-19T02:36:03;94653.25;;;4.88
45976;BMP280;31696;42.668;23.322;2023-11-19T02:38:04;94651.53;;;4.72
45976;BMP280;31696;42.668;23.322;2023-11-19T02:40:06;94654.50;;;4.82
45976;BMP280;31696;42.668;23.322;2023-11-19T02:42:09;94663.84;;;4.79
45976;BMP280;31696;42.668;23.322;2023-11-19T02:44:10;94655.81;;;4.64
45976;BMP280;31696;42.668;23.322;2023-11-19T02:46:12;94650.16;;;4.71
45976;BMP280;31696;42.668;23.322;2023-11-19T02:48:12;94651.16;;;4.63
45976;BMP280;31696;42.668;23.322;2023-11-19T02:50:14;94658.47;;;4.77
45976;BMP280;31696;42.668;23.322;2023-11-19T02:52:15;94659.19;;;4.78
45976;BMP280;31696;42.668;23.322;2023-11-19T02:54:15;94647.84;;;4.68
45976;BMP280;31696;42.668;23.322;2023-11-19T02:56:16;94648.84;;;4.59
45976;BMP280;31696;42.668;23.322;2023-11-19T02:58:25;94647.44;;;4.58
45976;BMP280;31696;42.668;23.322;2023-11-19T03:00:28;94640.50;;;4.53
45976;BMP280;31696;42.668;23.322;2023-11-19T03:02:32;94644.88;;;4.82
45976;BMP280;31696;42.668;23.322;2023-11-19T03:04:43;94635.75;;;4.57
45976;BMP280;31696;42.668;23.322;2023-11-19T03:06:46;94643.88;;;4.37
45976;BMP280;31696;42.668;23.322;2023-11-19T03:08:46;94642.34;;;4.28
45976;BMP280;31696;42.668;23.322;2023-11-19T03:10:46;94634.72;;;4.41
45976;BMP280;31696;42.668;23.322;2023-11-19T03:12:47;94645.75;;;4.66
45976;BMP280;31696;42.668;23.322;2023-11-19T03:14:47;94651.81;;;4.39
45976;BMP280;31696;42.668;23.322;2023-11-19T03:16:50;94664.44;;;4.37
45976;BMP280;31696;42.668;23.322;2023-11-19T03:18:51;94661.38;;;4.44
45976;BMP280;31696;42.668;23.322;2023-11-19T03:20:51;94648.06;;;4.40
45976;BMP280;31696;42.668;23.322;2023-11-19T03:22:52;94653.22;;;4.40
45976;BMP280;31696;42.668;23.322;2023-11-19T03:24:53;94652.72;;;4.41
45976;BMP280;31696;42.668;23.322;2023-11-19T03:26:53;94656.50;;;4.40
45976;BMP280;31696;42.668;23.322;2023-11-19T03:28:54;94648.88;;;4.29
45976;BMP280;31696;42.668;23.322;2023-11-19T03:30:55;94644.78;;;4.45
45976;BMP280;31696;42.668;23.322;2023-11-19T03:32:55;94659.31;;;4.37
45976;BMP280;31696;42.668;23.322;2023-11-19T03:34:56;94650.78;;;4.53
45976;BMP280;31696;42.668;23.322;2023-11-19T03:36:56;94653.75;;;4.33
45976;BMP280;31696;42.668;23.322;2023-11-19T03:38:57;94659.31;;;4.37
45976;BMP280;31696;42.668;23.322;2023-11-19T03:40:57;94666.94;;;4.48
45976;BMP280;31696;42.668;23.322;2023-11-19T03:42:59;94661.47;;;4.57
45976;BMP280;31696;42.668;23.322;2023-11-19T03:44:59;94669.09;;;4.44
45976;BMP280;31696;42.668;23.322;2023-11-19T03:47:00;94657.72;;;4.58
45976;BMP280;31696;42.668;23.322;2023-11-19T03:49:00;94673.97;;;4.47
45976;BMP280;31696;42.668;23.322;2023-11-19T03:51:02;94674.19;;;4.74
45976;BMP280;31696;42.668;23.322;2023-11-19T03:53:02;94689.97;;;4.65
45976;BMP280;31696;42.668;23.322;2023-11-19T03:55:03;94680.13;;;4.63
45976;BMP280;31696;42.668;23.322;2023-11-19T03:57:05;94682.59;;;4.50
45976;BMP280;31696;42.668;23.322;2023-11-19T03:59:06;94676.66;;;4.31
45976;BMP280;31696;42.668;23.322;2023-11-19T04:01:11;94677.31;;;4.37
45976;BMP280;31696;42.668;23.322;2023-11-19T04:03:15;94670.63;;;4.23
45976;BMP280;31696;42.668;23.322;2023-11-19T04:05:15;94676.13;;;4.38
45976;BMP280;31696;42.668;23.322;2023-11-19T04:07:16;94687.75;;;4.50
45976;BMP280;31696;42.668;23.322;2023-11-19T04:09:16;94689.34;;;4.23
45976;BMP280;31696;42.668;23.322;2023-11-19T04:11:17;94691.56;;;4.38
45976;BMP280;31696;42.668;23.322;2023-11-19T04:13:17;94694.88;;;4.33
45976;BMP280;31696;42.668;23.322;2023-11-19T04:15:17;94696.94;;;4.40
45976;BMP280;31696;42.668;23.322;2023-11-19T04:17:18;94700.38;;;4.48
45976;BMP280;31696;42.668;23.322;2023-11-19T04:19:19;94702.38;;;4.31
45976;BMP280;31696;42.668;23.322;2023-11-19T04:21:19;94703.94;;;4.39
45976;BMP280;31696;42.668;23.322;2023-11-19T04:23:20;94708.38;;;4.09
45976;BMP280;31696;42.668;23.322;2023-11-19T04:25:20;94703.63;;;4.54
45976;BMP280;31696;42.668;23.322;2023-11-19T04:27:21;94686.66;;;4.40
45976;BMP280;31696;42.668;23.322;2023-11-19T04:29:21;94694.88;;;4.33
45976;BMP280;31696;42.668;23.322;2023-11-19T04:31:22;94713.84;;;4.60
45976;BMP280;31696;42.668;23.322;2023-11-19T04:33:22;94703.97;;;4.69
45976;BMP280;31696;42.668;23.322;2023-11-19T04:35:23;94715.09;;;4.77
45976;BMP280;31696;42.668;23.322;2023-11-19T04:37:23;94717.59;;;4.88
45976;BMP280;31696;42.668;23.322;2023-11-19T04:39:23;94724.53;;;4.69
45976;BMP280;31696;42.668;23.322;2023-11-19T04:41:24;94713.16;;;4.59
45976;BMP280;31696;42.668;23.322;2023-11-19T04:43:24;94719.38;;;4.69
45976;BMP280;31696;42.668;23.322;2023-11-19T04:45:25;94721.28;;;4.63
45976;BMP280;31696;42.668;23.322;2023-11-19T04:47:25;94717.22;;;4.73
45976;BMP280;31696;42.668;23.322;2023-11-19T04:49:25;94722.09;;;4.53
45976;BMP280;31696;42.668;23.322;2023-11-19T04:51:27;94729.25;;;4.65
45976;BMP280;31696;42.668;23.322;2023-11-19T04:53:27;94732.53;;;4.60
45976;BMP280;31696;42.668;23.322;2023-11-19T04:55:27;94733.06;;;4.53
45976;BMP280;31696;42.668;23.322;2023-11-19T04:57:28;94744.06;;;4.83
45976;BMP280;31696;42.668;23.322;2023-11-19T04:59:28;94737.16;;;4.67
45976;BMP280;31696;42.668;23.322;2023-11-19T05:01:29;94740.59;;;4.75
45976;BMP280;31696;42.668;23.322;2023-11-19T05:03:30;94737.44;;;4.64
45976;BMP280;31696;42.668;23.322;2023-11-19T05:05:30;94741.91;;;4.87
45976;BMP280;31696;42.668;23.322;2023-11-19T05:07:31;94745.13;;;4.93
45976;BMP280;31696;42.668;23.322;2023-11-19T05:09:31;94760.22;;;4.78
45976;BMP280;31696;42.668;23.322;2023-11-19T05:11:31;94758.34;;;4.79
45976;BMP280;31696;42.668;23.322;2023-11-19T05:13:32;94763.28;;;4.77
45976;BMP280;31696;42.668;23.322;2023-11-19T05:15:32;94754.63;;;4.44
45976;BMP280;31696;42.668;23.322;2023-11-19T05:17:33;94755.78;;;4.49
45976;BMP280;31696;42.668;23.322;2023-11-19T05:19:33;94764.59;;;4.59
45976;BMP280;31696;42.668;23.322;2023-11-19T05:21:34;94755.78;;;4.49
45976;BMP280;31696;42.668;23.322;2023-11-19T05:23:36;94758.97;;;4.61
45976;BMP280;31696;42.668;23.322;2023-11-19T05:25:36;94757.03;;;4.67
45976;BMP280;31696;42.668;23.322;2023-11-19T05:27:37;94753.13;;;4.60
45976;BMP280;31696;42.668;23.322;2023-11-19T05:29:37;94749.03;;;4.76
45976;BMP280;31696;42.668;23.322;2023-11-19T05:31:39;94737.09;;;4.73
45976;BMP280;31696;42.668;23.322;2023-11-19T05:33:39;94738.91;;;4.54
45976;BMP280;31696;42.668;23.322;2023-11-19T05:35:40;94752.41;;;4.60
45976;BMP280;31696;42.668;23.322;2023-11-19T05:37:40;94751.47;;;4.63
45976;BMP280;31696;42.668;23.322;2023-11-19T05:39:40;94756.81;;;4.70
45976;BMP280;31696;42.668;23.322;2023-11-19T05:41:41;94760.81;;;4.66
45976;BMP280;31696;42.668;23.322;2023-11-19T05:43:41;94753.47;;;4.75
45976;BMP280;31696;42.668;23.322;2023-11-19T05:45:42;94755.13;;;4.73
45976;BMP280;31696;42.668;23.322;2023-11-19T05:47:42;94763.34;;;4.71
45976;BMP280;31696;42.668;23.322;2023-11-19T05:49:43;94770.75;;;4.80
45976;BMP280;31696;42.668;23.322;2023-11-19T05:51:43;94765.47;;;4.67
45976;BMP280;31696;42.668;23.322;2023-11-19T05:53:44;94761.28;;;4.64
45976;BMP280;31696;42.668;23.322;2023-11-19T05:55:45;94762.84;;;4.37
45976;BMP280;31696;42.668;23.322;2023-11-19T05:57:49;94776.31;;;4.55
45976;BMP280;31696;42.668;23.322;2023-11-19T05:59:51;94767.03;;;4.46
45976;BMP280;31696;42.668;23.322;2023-11-19T06:01:53;94764.72;;;4.72
45976;BMP280;31696;42.668;23.322;2023-11-19T06:03:54;94774.31;;;4.72
45976;BMP280;31696;42.668;23.322;2023-11-19T06:05:54;94780.06;;;4.83
45976;BMP280;31696;42.668;23.322;2023-11-19T06:07:55;94774.75;;;4.76
45976;BMP280;31696;42.668;23.322;2023-11-19T06:09:55;94784.88;;;4.68
45976;BMP280;31696;42.668;23.322;2023-11-19T06:11:56;94788.63;;;4.26
45976;BMP280;31696;42.668;23.322;2023-11-19T06:13:57;94791.72;;;4.60
45976;BMP280;31696;42.668;23.322;2023-11-19T06:15:57;94782.56;;;4.65
45976;BMP280;31696;42.668;23.322;2023-11-19T06:17:58;94783.81;;;4.53
45976;BMP280;31696;42.668;23.322;2023-11-19T06:20:01;94785.13;;;4.65
45976;BMP280;31696;42.668;23.322;2023-11-19T06:22:01;94777.16;;;4.68
45976;BMP280;31696;42.668;23.322;2023-11-19T06:24:01;94789.94;;;4.79
45976;BMP280;31696;42.668;23.322;2023-11-19T06:26:02;94779.47;;;4.72
45976;BMP280;31696;42.668;23.322;2023-11-19T06:28:03;94786.41;;;4.47
45976;BMP280;31696;42.668;23.322;2023-11-19T06:30:03;94778.56;;;4.69
45976;BMP280;31696;42.668;23.322;2023-11-19T06:32:04;94782.72;;;4.37
45976;BMP280;31696;42.668;23.322;2023-11-19T06:34:06;94798.06;;;4.54
45976;BMP280;31696;42.668;23.322;2023-11-19T06:36:06;94781.81;;;4.70
45976;BMP280;31696;42.668;23.322;2023-11-19T06:38:07;94783.22;;;4.71
45976;BMP280;31696;42.668;23.322;2023-11-19T06:40:08;94795.16;;;4.68
45976;BMP280;31696;42.668;23.322;2023-11-19T06:42:12;94791.47;;;4.58
45976;BMP280;31696;42.668;23.322;2023-11-19T06:44:12;94781.72;;;4.51
45976;BMP280;31696;42.668;23.322;2023-11-19T06:46:16;94796.22;;;4.48
45976;BMP280;31696;42.668;23.322;2023-11-19T06:48:17;94780.25;;;4.61
45976;BMP280;31696;42.668;23.322;2023-11-19T06:50:17;94797.69;;;4.74
45976;BMP280;31696;42.668;23.322;2023-11-19T06:52:19;94793.31;;;4.63
45976;BMP280;31696;42.668;23.322;2023-11-19T06:54:19;94782.19;;;4.49
45976;BMP280;31696;42.668;23.322;2023-11-19T06:56:23;94795.97;;;4.52
45976;BMP280;31696;42.668;23.322;2023-11-19T06:58:23;94791.84;;;4.38
45976;BMP280;31696;42.668;23.322;2023-11-19T07:00:24;94803.13;;;4.29
45976;BMP280;31696;42.668;23.322;2023-11-19T07:02:24;94793.88;;;4.51
45976;BMP280;31696;42.668;23.322;2023-11-19T07:04:25;94803.06;;;4.76
45976;BMP280;31696;42.668;23.322;2023-11-19T07:06:25;94802.91;;;4.63
45976;BMP280;31696;42.668;23.322;2023-11-19T07:08:26;94798.00;;;4.65
45976;BMP280;31696;42.668;23.322;2023-11-19T07:10:26;94801.84;;;4.41
45976;BMP280;31696;42.668;23.322;2023-11-19T07:12:27;94815.97;;;4.35
45976;BMP280;31696;42.668;23.322;2023-11-19T07:14:27;94814.47;;;4.45
45976;BMP280;31696;42.668;23.322;2023-11-19T07:16:28;94799.13;;;4.69
45976;BMP280;31696;42.668;23.322;2023-11-19T07:18:29;94792.19;;;4.59
45976;BMP280;31696;42.668;23.322;2023-11-19T07:20:30;94813.44;;;4.59
45976;BMP280;31696;42.668;23.322;2023-11-19T07:22:31;94809.44;;;4.64
45976;BMP280;31696;42.668;23.322;2023-11-19T07:24:31;94809.56;;;4.77
45976;BMP280;31696;42.668;23.322;2023-11-19T07:26:32;94812.78;;;4.88
45976;BMP280;31696;42.668;23.322;2023-11-19T07:28:32;94818.28;;;4.33
45976;BMP280;31696;42.668;23.322;2023-11-19T07:30:32;94820.19;;;4.68
45976;BMP280;31696;42.668;23.322;2023-11-19T07:32:33;94833.78;;;4.63
45976;BMP280;31696;42.668;23.322;2023-11-19T07:34:33;94838.88;;;4.68
45976;BMP280;31696;42.668;23.322;2023-11-19T07:36:34;94842.63;;;4.67
45976;BMP280;31696;42.668;23.322;2023-11-19T07:38:36;94848.63;;;4.81
45976;BMP280;31696;42.668;23.322;2023-11-19T07:40:36;94844.75;;;4.98
45976;BMP280;31696;42.668;23.322;2023-11-19T07:42:37;94838.13;;;4.73
45976;BMP280;31696;42.668;23.322;2023-11-19T07:44:38;94845.13;;;4.78
45976;BMP280;31696;42.668;23.322;2023-11-19T07:46:38;94849.66;;;4.67
45976;BMP280;31696;42.668;23.322;2023-11-19T07:48:39;94843.41;;;4.92
45976;BMP280;31696;42.668;23.322;2023-11-19T07:50:39;94832.91;;;4.90
45976;BMP280;31696;42.668;23.322;2023-11-19T07:52:42;94839.50;;;4.85
45976;BMP280;31696;42.668;23.322;2023-11-19T07:54:43;94849.56;;;4.78
45976;BMP280;31696;42.668;23.322;2023-11-19T07:56:43;94852.72;;;4.65
45976;BMP280;31696;42.668;23.322;2023-11-19T07:58:44;94852.66;;;4.35
45976;BMP280;31696;42.668;23.322;2023-11-19T08:00:44;94846.13;;;4.23
45976;BMP280;31696;42.668;23.322;2023-11-19T08:02:44;94849.66;;;4.20
45976;BMP280;31696;42.668;23.322;2023-11-19T08:04:45;94852.34;;;4.50
45976;BMP280;31696;42.668;23.322;2023-11-19T08:06:46;94862.03;;;4.68
45976;BMP280;31696;42.668;23.322;2023-11-19T08:08:46;94853.44;;;4.60
45976;BMP280;31696;42.668;23.322;2023-11-19T08:10:48;94865.72;;;4.78
45976;BMP280;31696;42.668;23.322;2023-11-19T08:12:49;94862.50;;;4.72
45976;BMP280;31696;42.668;23.322;2023-11-19T08:14:49;94864.06;;;4.86
45976;BMP280;31696;42.668;23.322;2023-11-19T08:16:50;94861.13;;;5.01
45976;BMP280;31696;42.668;23.322;2023-11-19T08:18:50;94868.72;;;4.82
45976;BMP280;31696;42.668;23.322;2023-11-19T08:20:50;94879.47;;;4.51
45976;BMP280;31696;42.668;23.322;2023-11-19T08:22:53;94871.19;;;4.64
45976;BMP280;31696;42.668;23.322;2023-11-19T08:24:53;94861.34;;;4.68
45976;BMP280;31696;42.668;23.322;2023-11-19T08:26:54;94868.25;;;4.84
45976;BMP280;31696;42.668;23.322;2023-11-19T08:28:54;94863.59;;;4.77
45976;BMP280;31696;42.668;23.322;2023-11-19T08:30:55;94872.94;;;4.85
45976;BMP280;31696;42.668;23.322;2023-11-19T08:32:55;94875.13;;;4.70
45976;BMP280;31696;42.668;23.322;2023-11-19T08:34:56;94862.78;;;4.98
45976;BMP280;31696;42.668;23.322;2023-11-19T08:36:56;94876.81;;;4.97
45976;BMP280;31696;42.668;23.322;2023-11-19T08:38:56;94876.31;;;5.05
45976;BMP280;31696;42.668;23.322;2023-11-19T08:40:57;94880.97;;;5.36
45976;BMP280;31696;42.668;23.322;2023-11-19T08:42:59;94882.19;;;5.29
45976;BMP280;31696;42.668;23.322;2023-11-19T08:45:00;94879.94;;;4.90
45976;BMP280;31696;42.668;23.322;2023-11-19T08:47:01;94873.34;;;5.25
45976;BMP280;31696;42.668;23.322;2023-11-19T08:49:01;94875.38;;;5.37
45976;BMP280;31696;42.668;23.322;2023-11-19T08:51:03;94866.09;;;5.53
45976;BMP280;31696;42.668;23.322;2023-11-19T08:53:04;94872.41;;;5.52
45976;BMP280;31696;42.668;23.322;2023-11-19T08:55:07;94872.00;;;5.13
45976;BMP280;31696;42.668;23.322;2023-11-19T08:57:09;94881.47;;;5.59
45976;BMP280;31696;42.668;23.322;2023-11-19T08:59:10;94881.72;;;5.01
45976;BMP280;31696;42.668;23.322;2023-11-19T09:01:10;94871.41;;;5.31
45976;BMP280;31696;42.668;23.322;2023-11-19T09:03:11;94870.75;;;5.55
45976;BMP280;31696;42.668;23.322;2023-11-19T09:05:11;94864.94;;;5.49
45976;BMP280;31696;42.668;23.322;2023-11-19T09:07:12;94859.28;;;5.26
45976;BMP280;31696;42.668;23.322;2023-11-19T09:09:13;94862.25;;;5.35
45976;BMP280;31696;42.668;23.322;2023-11-19T09:11:14;94859.22;;;5.37
45976;BMP280;31696;42.668;23.322;2023-11-19T09:13:14;94853.72;;;5.46
45976;BMP280;31696;42.668;23.322;2023-11-19T09:15:15;94853.63;;;5.57
45976;BMP280;31696;42.668;23.322;2023-11-19T09:17:15;94845.72;;;5.74
45976;BMP280;31696;42.668;23.322;2023-11-19T09:19:17;94835.91;;;5.72
45976;BMP280;31696;42.668;23.322;2023-11-19T09:21:18;94856.63;;;5.61
45976;BMP280;31696;42.668;23.322;2023-11-19T09:23:18;94859.56;;;5.47
45976;BMP280;31696;42.668;23.322;2023-11-19T09:25:19;94855.97;;;5.31
45976;BMP280;31696;42.668;23.322;2023-11-19T09:27:19;94867.91;;;5.58
45976;BMP280;31696;42.668;23.322;2023-11-19T09:29:20;94878.00;;;5.26
45976;BMP280;31696;42.668;23.322;2023-11-19T09:31:21;94881.91;;;5.38
45976;BMP280;31696;42.668;23.322;2023-11-19T09:33:22;94868.09;;;5.36
45976;BMP280;31696;42.668;23.322;2023-11-19T09:35:22;94865.56;;;5.30
45976;BMP280;31696;42.668;23.322;2023-11-19T09:37:22;94856.72;;;5.50
45976;BMP280;31696;42.668;23.322;2023-11-19T09:39:23;94847.50;;;5.36
45976;BMP280;31696;42.668;23.322;2023-11-19T09:41:25;94838.19;;;5.33
45976;BMP280;31696;42.668;23.322;2023-11-19T09:43:28;94829.03;;;5.56
45976;BMP280;31696;42.668;23.322;2023-11-19T09:45:28;94823.91;;;5.75
45976;BMP280;31696;42.668;23.322;2023-11-19T09:47:29;94819.84;;;5.61
45976;BMP280;31696;42.668;23.322;2023-11-19T09:49:30;94818.25;;;5.58
45976;BMP280;31696;42.668;23.322;2023-11-19T09:51:30;94813.91;;;5.47
45976;BMP280;31696;42.668;23.322;2023-11-19T09:53:30;94809.44;;;5.53
45976;BMP280;31696;42.668;23.322;2023-11-19T09:55:31;94798.72;;;5.68
45976;BMP280;31696;42.668;23.322;2023-11-19T09:57:32;94792.88;;;5.67
45976;BMP280;31696;42.668;23.322;2023-11-19T09:59:33;94788.75;;;5.77
45976;BMP280;31696;42.668;23.322;2023-11-19T10:01:33;94805.56;;;5.84
45976;BMP280;31696;42.668;23.322;2023-11-19T10:03:34;94793.81;;;5.64
45976;BMP280;31696;42.668;23.322;2023-11-19T10:05:38;94796.84;;;5.68
45976;BMP280;31696;42.668;23.322;2023-11-19T10:07:39;94796.47;;;5.59
45976;BMP280;31696;42.668;23.322;2023-11-19T10:09:39;94792.44;;;5.63
45976;BMP280;31696;42.668;23.322;2023-11-19T10:11:40;94789.81;;;5.69
45976;BMP280;31696;42.668;23.322;2023-11-19T10:13:40;94794.22;;;6.11
45976;BMP280;31696;42.668;23.322;2023-11-19T10:15:42;94794.91;;;6.12
45976;BMP280;31696;42.668;23.322;2023-11-19T10:17:43;94795.06;;;6.01
45976;BMP280;31696;42.668;23.322;2023-11-19T10:19:44;94798.09;;;5.80
45976;BMP280;31696;42.668;23.322;2023-11-19T10:21:44;94804.88;;;5.83
45976;BMP280;31696;42.668;23.322;2023-11-19T10:23:47;94803.66;;;5.84
45976;BMP280;31696;42.668;23.322;2023-11-19T10:25:48;94807.66;;;5.85
45976;BMP280;31696;42.668;23.322;2023-11-19T10:27:49;94797.66;;;5.76
45976;BMP280;31696;42.668;23.322;2023-11-19T10:29:49;94797.28;;;6.10
45976;BMP280;31696;42.668;23.322;2023-11-19T10:31:56;94783.38;;;6.31
45976;BMP280;31696;42.668;23.322;2023-11-19T10:33:57;94792.66;;;6.21
45976;BMP280;31696;42.668;23.322;2023-11-19T10:35:57;94781.91;;;6.36
45976;BMP280;31696;42.668;23.322;2023-11-19T10:38:01;94782.28;;;6.27
45976;BMP280;31696;42.668;23.322;2023-11-19T10:40:02;94783.16;;;6.48
45976;BMP280;31696;42.668;23.322;2023-11-19T10:42:17;94785.28;;;6.63
45976;BMP280;31696;42.668;23.322;2023-11-19T10:44:33;94800.66;;;6.68
45976;BMP280;31696;42.668;23.322;2023-11-19T10:46:39;94800.06;;;6.62
45976;BMP280;31696;42.668;23.322;2023-11-19T10:48:43;94798.47;;;6.27
45976;BMP280;31696;42.668;23.322;2023-11-19T10:50:45;94793.41;;;6.54
45976;BMP280;31696;42.668;23.322;2023-11-19T10:52:46;94803.25;;;6.68
45976;BMP280;31696;42.668;23.322;2023-11-19T10:54:49;94788.34;;;6.61
45976;BMP280;31696;42.668;23.322;2023-11-19T10:56:51;94789.56;;;6.73
45976;BMP280;31696;42.668;23.322;2023-11-19T10:58:52;94789.72;;;6.81
45976;BMP280;31696;42.668;23.322;2023-11-19T11:00:55;94794.63;;;6.66
45976;BMP280;31696;42.668;23.322;2023-11-19T11:03:00;94783.00;;;6.72
45976;BMP280;31696;42.668;23.322;2023-11-19T11:05:00;94785.84;;;6.56
45976;BMP280;31696;42.668;23.322;2023-11-19T11:07:03;94779.00;;;6.58
45976;BMP280;31696;42.668;23.322;2023-11-19T11:09:04;94772.84;;;6.61
45976;BMP280;31696;42.668;23.322;2023-11-19T11:11:05;94759.66;;;6.52
45976;BMP280;31696;42.668;23.322;2023-11-19T11:13:07;94751.66;;;6.36
45976;BMP280;31696;42.668;23.322;2023-11-19T11:15:08;94739.34;;;6.29
45976;BMP280;31696;42.668;23.322;2023-11-19T11:17:12;94743.56;;;6.14
45976;BMP280;31696;42.668;23.322;2023-11-19T11:19:12;94739.06;;;6.46
45976;BMP280;31696;42.668;23.322;2023-11-19T11:21:14;94742.66;;;6.43
45976;BMP280;31696;42.668;23.322;2023-11-19T11:25:34;94742.41;;;6.28
45976;BMP280;31696;42.668;23.322;2023-11-19T11:36:22;94745.47;;;6.26
45976;BMP280;31696;42.668;23.322;2023-11-19T11:38:22;94741.19;;;6.48
45976;BMP280;31696;42.668;23.322;2023-11-19T11:40:24;94732.72;;;6.47
45976;BMP280;31696;42.668;23.322;2023-11-19T11:44:57;94719.81;;;6.34
45976;BMP280;31696;42.668;23.322;2023-11-19T11:46:56;94706.03;;;6.45
45976;BMP280;31696;42.668;23.322;2023-11-19T11:48:59;94709.66;;;6.23
45976;BMP280;31696;42.668;23.322;2023-11-19T11:51:00;94705.97;;;6.50